createdAt,value
2022-11-29T00:00:49.681Z,958.33
2022-11-29T00:01:49.546Z,958.3
2022-11-29T00:02:49.629Z,958.27
2022-11-29T00:03:49.509Z,958.24
2022-11-29T00:04:49.621Z,958.27
2022-11-29T00:05:49.573Z,958.25
2022-11-29T00:07:49.761Z,958.26
2022-11-29T00:08:50.487Z,958.22
2022-11-29T00:09:49.650Z,958.23
2022-11-29T00:10:49.551Z,958.19
2022-11-29T00:11:49.602Z,958.18
2022-11-29T00:12:49.654Z,958.14
2022-11-29T00:13:49.627Z,958.17
2022-11-29T00:14:49.672Z,958.14
2022-11-29T00:20:49.771Z,958.13
2022-11-29T00:21:49.669Z,958.14
2022-11-29T00:23:49.631Z,958.12
2022-11-29T00:24:49.692Z,958.14
2022-11-29T00:25:49.631Z,958.15
2022-11-29T00:26:49.564Z,958.13
2022-11-29T00:27:49.686Z,958.14
2022-11-29T00:31:49.758Z,958.13
2022-11-29T00:33:49.682Z,958.09
2022-11-29T00:34:49.657Z,958.11
2022-11-29T00:35:49.907Z,958.12
2022-11-29T00:36:49.589Z,958.11
2022-11-29T00:37:49.648Z,958.13
2022-11-29T00:38:49.739Z,958.12
2022-11-29T00:39:49.695Z,958.11
2022-11-29T00:41:49.712Z,958.1
2022-11-29T00:43:49.751Z,958.11
2022-11-29T00:44:49.737Z,958.1
2022-11-29T00:45:49.719Z,958.11
2022-11-29T00:46:50.697Z,958.09
2022-11-29T00:47:49.737Z,958.08
2022-11-29T00:49:49.901Z,958.11
2022-11-29T00:50:49.756Z,958.08
2022-11-29T00:51:49.802Z,958.1
2022-11-29T00:52:49.824Z,958.12
2022-11-29T00:54:49.709Z,958.08
2022-11-29T00:55:49.823Z,958.13
2022-11-29T00:56:49.781Z,958.07
2022-11-29T00:57:49.723Z,958.1
2022-11-29T00:58:49.800Z,958.11
2022-11-29T00:59:49.752Z,958.07
2022-11-29T01:00:49.724Z,958.11
2022-11-29T01:01:49.803Z,958.08
2022-11-29T01:02:49.751Z,958.07
2022-11-29T01:03:49.716Z,958.04
2022-11-29T01:05:49.850Z,958.05
2022-11-29T01:06:49.815Z,958.03
2022-11-29T01:07:49.835Z,958
2022-11-29T01:08:49.762Z,958.02
2022-11-29T01:09:49.674Z,957.98
2022-11-29T01:10:49.693Z,957.97
2022-11-29T01:11:49.751Z,957.98
2022-11-29T01:12:49.721Z,958
2022-11-29T01:13:50.823Z,958.02
2022-11-29T01:16:49.958Z,958.03
2022-11-29T01:17:49.789Z,958.02
2022-11-29T01:18:49.739Z,958.04
2022-11-29T01:19:51.064Z,958.03
2022-11-29T01:20:49.693Z,958.05
2022-11-29T01:21:49.746Z,958
2022-11-29T01:22:49.684Z,958.03
2022-11-29T01:23:49.792Z,958.07
2022-11-29T01:24:49.760Z,958.06
2022-11-29T01:25:49.821Z,958.08
2022-11-29T01:26:49.785Z,958.04
2022-11-29T01:30:49.955Z,958.05
2022-11-29T01:31:49.840Z,958.06
2022-11-29T01:32:49.724Z,958.07
2022-11-29T01:33:49.861Z,958.04
2022-11-29T01:34:49.723Z,958
2022-11-29T01:35:49.725Z,958.02
2022-11-29T01:36:49.903Z,957.99
2022-11-29T01:38:49.865Z,957.98
2022-11-29T01:39:49.876Z,958
2022-11-29T01:42:49.881Z,957.99
2022-11-29T01:43:49.855Z,957.98
2022-11-29T01:44:49.800Z,957.99
2022-11-29T01:47:49.928Z,957.98
2022-11-29T01:49:49.879Z,957.94
2022-11-29T01:50:49.811Z,957.97
2022-11-29T01:51:49.905Z,957.96
2022-11-29T01:52:49.847Z,957.97
2022-11-29T01:54:50.023Z,957.93
2022-11-29T01:55:49.800Z,957.95
2022-11-29T01:59:50.000Z,957.96
2022-11-29T02:00:49.786Z,957.95
2022-11-29T02:01:49.866Z,957.96
2022-11-29T02:03:49.923Z,957.98
2022-11-29T02:04:49.905Z,957.99
2022-11-29T02:05:49.897Z,957.96
2022-11-29T02:06:49.958Z,957.99
2022-11-29T02:08:50.097Z,957.98
2022-11-29T02:09:49.928Z,957.94
2022-11-29T02:10:49.900Z,957.98
2022-11-29T02:11:49.950Z,957.99
2022-11-29T02:12:49.926Z,957.97
2022-11-29T02:14:50.083Z,957.98
2022-11-29T02:15:49.858Z,958
2022-11-29T02:16:53.603Z,957.99
2022-11-29T02:17:51.316Z,957.96
2022-11-29T02:18:49.929Z,957.95
2022-11-29T02:19:49.887Z,957.97
2022-11-29T02:20:49.841Z,958.01
2022-11-29T02:21:49.925Z,957.98
2022-11-29T02:22:49.934Z,957.99
2022-11-29T02:23:49.848Z,958
2022-11-29T02:24:49.955Z,957.96
2022-11-29T02:25:49.888Z,957.98
2022-11-29T02:26:49.982Z,958
2022-11-29T02:27:49.941Z,957.97
2022-11-29T02:28:49.911Z,957.96
2022-11-29T02:30:50.089Z,957.98
2022-11-29T02:31:50.041Z,957.95
2022-11-29T02:32:49.982Z,957.97
2022-11-29T02:33:49.854Z,957.95
2022-11-29T02:34:49.860Z,957.97
2022-11-29T02:36:49.929Z,957.94
2022-11-29T02:37:50.032Z,957.96
2022-11-29T02:38:49.886Z,957.97
2022-11-29T02:40:49.960Z,957.99
2022-11-29T02:43:50.021Z,957.97
2022-11-29T02:45:50.125Z,957.96
2022-11-29T02:46:50.179Z,957.98
2022-11-29T02:47:50.016Z,957.97
2022-11-29T02:48:49.960Z,957.95
2022-11-29T02:49:50.057Z,957.98
2022-11-29T02:50:49.915Z,957.95
2022-11-29T02:51:49.904Z,957.93
2022-11-29T02:52:49.969Z,957.95
2022-11-29T02:53:49.913Z,957.92
2022-11-29T02:54:49.969Z,957.95
2022-11-29T02:55:50.045Z,957.96
2022-11-29T02:58:50.089Z,957.95
2022-11-29T02:59:50.022Z,957.96
2022-11-29T03:00:50.021Z,957.98
2022-11-29T03:01:49.997Z,957.95
2022-11-29T03:02:49.931Z,957.93
2022-11-29T03:03:49.938Z,958.01
2022-11-29T03:04:49.943Z,957.93
2022-11-29T03:07:50.145Z,957.92
2022-11-29T03:08:50.053Z,957.89
2022-11-29T03:09:50.109Z,957.91
2022-11-29T03:10:50.066Z,957.95
2022-11-29T03:11:49.979Z,957.9
2022-11-29T03:12:49.979Z,957.93
2022-11-29T03:13:50.031Z,957.9
2022-11-29T03:14:50.030Z,957.96
2022-11-29T03:15:50.143Z,958
2022-11-29T03:16:50.086Z,957.92
2022-11-29T03:17:50.031Z,958
2022-11-29T03:18:49.975Z,957.99
2022-11-29T03:19:50.169Z,958.02
2022-11-29T03:20:49.982Z,957.99
2022-11-29T03:21:50.032Z,958.02
2022-11-29T03:22:49.921Z,958.01
2022-11-29T03:23:50.053Z,958.04
2022-11-29T03:24:49.967Z,958.05
2022-11-29T03:25:49.956Z,958.06
2022-11-29T03:26:50.192Z,958.04
2022-11-29T03:27:50.076Z,958.05
2022-11-29T03:28:49.999Z,958.07
2022-11-29T03:29:49.977Z,958.09
2022-11-29T03:30:50.034Z,958.07
2022-11-29T03:31:50.076Z,958.09
2022-11-29T03:32:49.975Z,958.12
2022-11-29T03:33:49.984Z,958.13
2022-11-29T03:34:54.276Z,958.11
2022-11-29T03:35:50.050Z,958.13
2022-11-29T03:36:49.994Z,958.11
2022-11-29T03:37:50.097Z,958.13
2022-11-29T03:39:50.138Z,958.14
2022-11-29T03:41:50.138Z,958.13
2022-11-29T03:42:50.022Z,958.14
2022-11-29T03:43:50.105Z,958.12
2022-11-29T03:44:50.003Z,958.13
2022-11-29T03:45:50.107Z,958.14
2022-11-29T03:47:50.197Z,958.15
2022-11-29T03:49:50.155Z,958.13
2022-11-29T03:50:50.247Z,958.12
2022-11-29T03:51:50.167Z,958.13
2022-11-29T03:52:50.026Z,958.12
2022-11-29T03:54:50.286Z,958.15
2022-11-29T03:55:50.037Z,958.17
2022-11-29T03:56:50.089Z,958.18
2022-11-29T03:57:50.043Z,958.17
2022-11-29T03:58:50.116Z,958.19
2022-11-29T03:59:50.043Z,958.24
2022-11-29T04:00:50.053Z,958.2
2022-11-29T04:01:50.150Z,958.21
2022-11-29T04:02:50.136Z,958.23
2022-11-29T04:03:50.058Z,958.22
2022-11-29T04:05:50.116Z,958.19
2022-11-29T04:08:50.288Z,958.2
2022-11-29T04:09:50.080Z,958.17
2022-11-29T04:10:50.084Z,958.2
2022-11-29T04:12:50.243Z,958.19
2022-11-29T04:15:50.304Z,958.26
2022-11-29T04:16:50.132Z,958.23
2022-11-29T04:17:50.114Z,958.24
2022-11-29T04:18:50.187Z,958.22
2022-11-29T04:20:50.251Z,958.19
2022-11-29T04:21:50.119Z,958.21
2022-11-29T04:22:50.145Z,958.22
2022-11-29T04:24:50.229Z,958.2
2022-11-29T04:25:50.256Z,958.23
2022-11-29T04:26:50.232Z,958.2
2022-11-29T04:28:50.206Z,958.17
2022-11-29T04:29:50.127Z,958.19
2022-11-29T04:30:50.203Z,958.2
2022-11-29T04:31:50.204Z,958.22
2022-11-29T04:32:50.131Z,958.23
2022-11-29T04:33:50.215Z,958.22
2022-11-29T04:34:50.120Z,958.23
2022-11-29T04:35:50.229Z,958.2
2022-11-29T04:36:50.164Z,958.23
2022-11-29T04:37:50.268Z,958.21
2022-11-29T04:38:50.252Z,958.18
2022-11-29T04:39:50.144Z,958.23
2022-11-29T04:40:50.191Z,958.18
2022-11-29T04:41:50.283Z,958.21
2022-11-29T04:42:50.268Z,958.23
2022-11-29T04:43:50.283Z,958.22
2022-11-29T04:44:50.149Z,958.24
2022-11-29T04:45:50.328Z,958.22
2022-11-29T04:48:50.220Z,958.23
2022-11-29T04:49:50.192Z,958.24
2022-11-29T04:50:50.223Z,958.23
2022-11-29T04:51:50.183Z,958.26
2022-11-29T04:52:50.178Z,958.28
2022-11-29T04:53:50.183Z,958.25
2022-11-29T04:54:50.169Z,958.27
2022-11-29T04:56:50.335Z,958.31
2022-11-29T04:57:50.211Z,958.28
2022-11-29T04:58:50.296Z,958.29
2022-11-29T04:59:50.184Z,958.32
2022-11-29T05:00:50.333Z,958.33
2022-11-29T05:01:50.271Z,958.3
2022-11-29T05:03:53.916Z,958.31
2022-11-29T05:05:50.272Z,958.33
2022-11-29T05:06:50.221Z,958.28
2022-11-29T05:07:50.262Z,958.36
2022-11-29T05:09:50.294Z,958.34
2022-11-29T05:10:50.331Z,958.33
2022-11-29T05:11:50.282Z,958.34
2022-11-29T05:12:50.226Z,958.37
2022-11-29T05:13:50.210Z,958.39
2022-11-29T05:15:50.284Z,958.38
2022-11-29T05:17:50.319Z,958.41
2022-11-29T05:18:50.245Z,958.4
2022-11-29T05:19:50.227Z,958.42
2022-11-29T05:20:50.237Z,958.4
2022-11-29T05:21:50.289Z,958.43
2022-11-29T05:22:50.250Z,958.45
2022-11-29T05:23:50.242Z,958.47
2022-11-29T05:24:50.363Z,958.44
2022-11-29T05:25:50.328Z,958.5
2022-11-29T05:27:50.340Z,958.49
2022-11-29T05:28:50.253Z,958.5
2022-11-29T05:29:50.404Z,958.51
2022-11-29T05:30:50.370Z,958.54
2022-11-29T05:31:50.346Z,958.52
2022-11-29T05:32:50.305Z,958.55
2022-11-29T05:34:50.780Z,958.59
2022-11-29T05:35:50.265Z,958.56
2022-11-29T05:36:50.397Z,958.58
2022-11-29T05:37:50.347Z,958.56
2022-11-29T05:38:50.287Z,958.6
2022-11-29T05:39:50.380Z,958.61
2022-11-29T05:40:50.277Z,958.58
2022-11-29T05:41:50.277Z,958.59
2022-11-29T05:43:50.326Z,958.61
2022-11-29T05:44:50.291Z,958.6
2022-11-29T05:45:50.337Z,958.64
2022-11-29T05:46:50.367Z,958.62
2022-11-29T05:47:50.297Z,958.58
2022-11-29T05:49:50.392Z,958.59
2022-11-29T05:50:50.343Z,958.61
2022-11-29T05:51:50.377Z,958.59
2022-11-29T05:52:50.321Z,958.61
2022-11-29T05:53:50.318Z,958.58
2022-11-29T05:54:50.314Z,958.6
2022-11-29T05:56:50.561Z,958.62
2022-11-29T05:57:50.335Z,958.64
2022-11-29T05:59:50.377Z,958.65
2022-11-29T06:00:50.418Z,958.66
2022-11-29T06:01:50.461Z,958.65
2022-11-29T06:05:50.378Z,958.68
2022-11-29T06:06:50.428Z,958.67
2022-11-29T06:07:50.384Z,958.7
2022-11-29T06:08:50.463Z,958.67
2022-11-29T06:09:50.344Z,958.69
2022-11-29T06:10:50.528Z,958.68
2022-11-29T06:12:50.409Z,958.67
2022-11-29T06:13:50.455Z,958.7
2022-11-29T06:14:50.388Z,958.69
2022-11-29T06:15:50.458Z,958.72
2022-11-29T06:17:50.528Z,958.76
2022-11-29T06:18:50.443Z,958.74
2022-11-29T06:19:50.456Z,958.75
2022-11-29T06:20:50.422Z,958.74
2022-11-29T06:21:50.449Z,958.77
2022-11-29T06:22:50.506Z,958.74
2022-11-29T06:23:50.475Z,958.76
2022-11-29T06:24:50.394Z,958.75
2022-11-29T06:25:50.381Z,958.77
2022-11-29T06:26:50.563Z,958.76
2022-11-29T06:28:50.508Z,958.78
2022-11-29T06:29:50.554Z,958.81
2022-11-29T06:30:50.468Z,958.8
2022-11-29T06:31:50.490Z,958.77
2022-11-29T06:32:50.507Z,958.79
2022-11-29T06:33:50.474Z,958.78
2022-11-29T06:34:50.407Z,958.75
2022-11-29T06:35:50.545Z,958.81
2022-11-29T06:36:50.476Z,958.82
2022-11-29T06:37:50.493Z,958.78
2022-11-29T06:38:50.574Z,958.8
2022-11-29T06:39:50.428Z,958.79
2022-11-29T06:41:50.501Z,958.77
2022-11-29T06:42:50.482Z,958.78
2022-11-29T06:43:50.436Z,958.82
2022-11-29T06:44:50.514Z,958.8
2022-11-29T06:45:50.551Z,958.85
2022-11-29T06:46:50.691Z,958.81
2022-11-29T06:47:50.464Z,958.86
2022-11-29T06:48:50.491Z,958.87
2022-11-29T06:49:50.546Z,958.86
2022-11-29T06:50:50.575Z,958.89
2022-11-29T06:51:50.502Z,958.91
2022-11-29T06:52:50.645Z,958.95
2022-11-29T06:53:50.538Z,958.96
2022-11-29T06:54:51.686Z,958.97
2022-11-29T06:55:50.572Z,958.98
2022-11-29T06:56:50.541Z,958.96
2022-11-29T06:57:50.602Z,958.97
2022-11-29T06:59:50.530Z,958.93
2022-11-29T07:02:50.614Z,958.97
2022-11-29T07:03:50.556Z,958.96
2022-11-29T07:05:50.713Z,958.95
2022-11-29T07:06:50.637Z,958.96
2022-11-29T07:07:50.610Z,958.95
2022-11-29T07:08:50.507Z,958.98
2022-11-29T07:09:50.500Z,958.99
2022-11-29T07:10:50.585Z,958.97
2022-11-29T07:11:54.839Z,959.01
2022-11-29T07:12:50.720Z,959.02
2022-11-29T07:13:50.664Z,959.01
2022-11-29T07:14:50.749Z,959.02
2022-11-29T07:15:50.559Z,959.03
2022-11-29T07:16:54.523Z,959.05
2022-11-29T07:17:51.797Z,959.12
2022-11-29T07:18:50.517Z,959.11
2022-11-29T07:19:50.563Z,959.09
2022-11-29T07:21:50.875Z,959.08
2022-11-29T07:22:50.612Z,959.15
2022-11-29T07:23:50.532Z,959.14
2022-11-29T07:24:50.542Z,959.15
2022-11-29T07:25:50.603Z,959.17
2022-11-29T07:26:53.975Z,959.18
2022-11-29T07:28:50.779Z,959.19
2022-11-29T07:29:50.780Z,959.18
2022-11-29T07:30:50.583Z,959.17
2022-11-29T07:31:50.628Z,959.21
2022-11-29T07:32:52.857Z,959.18
2022-11-29T07:33:50.780Z,959.21
2022-11-29T07:34:50.627Z,959.19
2022-11-29T07:36:50.720Z,959.2
2022-11-29T07:37:50.574Z,959.21
2022-11-29T07:38:50.767Z,959.19
2022-11-29T07:39:50.667Z,959.2
2022-11-29T07:40:51.881Z,959.23
2022-11-29T07:41:50.834Z,959.19
2022-11-29T07:42:50.795Z,959.17
2022-11-29T07:43:50.749Z,959.21
2022-11-29T07:44:50.797Z,959.23
2022-11-29T07:45:50.721Z,959.21
2022-11-29T07:46:51.994Z,959.23
2022-11-29T07:47:50.722Z,959.24
2022-11-29T07:48:50.613Z,959.23
2022-11-29T07:49:50.634Z,959.24
2022-11-29T07:50:50.700Z,959.23
2022-11-29T07:51:50.671Z,959.27
2022-11-29T07:52:50.842Z,959.25
2022-11-29T07:53:50.652Z,959.23
2022-11-29T07:54:50.681Z,959.27
2022-11-29T07:55:50.839Z,959.32
2022-11-29T07:56:50.620Z,959.28
2022-11-29T07:57:50.606Z,959.3
2022-11-29T07:58:50.783Z,959.33
2022-11-29T08:02:50.833Z,959.37
2022-11-29T08:03:50.701Z,959.36
2022-11-29T08:04:50.837Z,959.37
2022-11-29T08:05:50.691Z,959.39
2022-11-29T08:06:50.672Z,959.4
2022-11-29T08:08:50.715Z,959.39
2022-11-29T08:10:50.742Z,959.4
2022-11-29T08:11:50.717Z,959.44
2022-11-29T08:13:50.744Z,959.41
2022-11-29T08:14:50.699Z,959.42
2022-11-29T08:15:50.901Z,959.46
2022-11-29T08:16:50.905Z,959.47
2022-11-29T08:17:50.768Z,959.45
2022-11-29T08:18:50.843Z,959.47
2022-11-29T08:19:50.810Z,959.49
2022-11-29T08:20:50.837Z,959.48
2022-11-29T08:21:50.901Z,959.55
2022-11-29T08:22:50.823Z,959.51
2022-11-29T08:25:50.874Z,959.52
2022-11-29T08:26:50.694Z,959.53
2022-11-29T08:27:50.860Z,959.51
2022-11-29T08:28:50.802Z,959.58
2022-11-29T08:30:50.749Z,959.6
2022-11-29T08:31:50.968Z,959.54
2022-11-29T08:32:51.651Z,959.6
2022-11-29T08:33:50.864Z,959.61
2022-11-29T08:34:50.796Z,959.57
2022-11-29T08:35:50.768Z,959.58
2022-11-29T08:36:50.959Z,959.57
2022-11-29T08:37:50.823Z,959.58
2022-11-29T08:39:50.928Z,959.57
2022-11-29T08:40:50.716Z,959.58
2022-11-29T08:41:50.716Z,959.56
2022-11-29T08:42:50.720Z,959.54
2022-11-29T08:43:50.739Z,959.56
2022-11-29T08:45:50.962Z,959.55
2022-11-29T08:46:50.833Z,959.56
2022-11-29T08:47:50.891Z,959.53
2022-11-29T08:48:50.870Z,959.57
2022-11-29T08:49:50.743Z,959.58
2022-11-29T08:52:50.876Z,959.56
2022-11-29T08:53:50.918Z,959.58
2022-11-29T08:54:50.860Z,959.6
2022-11-29T08:55:50.839Z,959.58
2022-11-29T08:57:37.753Z,959.57
2022-11-29T08:57:51.445Z,959.58
2022-11-29T08:58:50.873Z,959.59
2022-11-29T08:59:50.772Z,959.6
2022-11-29T09:00:50.939Z,959.57
2022-11-29T09:01:50.897Z,959.6
2022-11-29T09:02:50.773Z,959.55
2022-11-29T09:03:50.902Z,959.58
2022-11-29T09:04:50.897Z,959.62
2022-11-29T09:05:50.914Z,959.6
2022-11-29T09:06:50.879Z,959.63
2022-11-29T09:07:50.916Z,959.64
2022-11-29T09:09:50.999Z,959.66
2022-11-29T09:10:50.812Z,959.67
2022-11-29T09:12:50.999Z,959.63
2022-11-29T09:13:50.808Z,959.66
2022-11-29T09:14:50.789Z,959.7
2022-11-29T09:16:50.934Z,959.72
2022-11-29T09:17:51.083Z,959.69
2022-11-29T09:18:52.005Z,959.74
2022-11-29T09:19:51.196Z,959.7
2022-11-29T09:21:50.956Z,959.75
2022-11-29T09:22:50.990Z,959.72
2022-11-29T09:23:50.891Z,959.77
2022-11-29T09:25:50.900Z,959.76
2022-11-29T09:26:51.016Z,959.77
2022-11-29T09:27:50.878Z,959.75
2022-11-29T09:28:51.064Z,959.76
2022-11-29T09:29:50.998Z,959.75
2022-11-29T09:30:50.856Z,959.79
2022-11-29T09:31:52.025Z,959.78
2022-11-29T09:32:50.976Z,959.81
2022-11-29T09:33:50.848Z,959.82
2022-11-29T09:34:50.952Z,959.83
2022-11-29T09:35:50.989Z,959.84
2022-11-29T09:36:50.926Z,959.82
2022-11-29T09:37:50.994Z,959.85
2022-11-29T09:38:51.026Z,959.81
2022-11-29T09:39:51.056Z,959.86
2022-11-29T09:40:51.022Z,959.87
2022-11-29T09:41:50.965Z,959.86
2022-11-29T09:42:51.033Z,959.85
2022-11-29T09:43:50.867Z,959.86
2022-11-29T09:44:50.964Z,959.89
2022-11-29T09:45:51.024Z,959.9
2022-11-29T09:48:50.964Z,959.87
2022-11-29T09:49:51.027Z,959.89
2022-11-29T09:51:51.110Z,959.9
2022-11-29T09:52:50.953Z,959.91
2022-11-29T09:53:50.890Z,959.86
2022-11-29T09:54:51.046Z,959.9
2022-11-29T09:55:50.897Z,959.88
2022-11-29T09:56:50.983Z,959.86
2022-11-29T09:57:50.913Z,959.88
2022-11-29T09:58:51.142Z,959.86
2022-11-29T09:59:50.931Z,959.8
2022-11-29T10:00:50.959Z,959.82
2022-11-29T10:01:51.014Z,959.8
2022-11-29T10:02:51.008Z,959.78
2022-11-29T10:03:51.067Z,959.81
2022-11-29T10:04:51.023Z,959.84
2022-11-29T10:05:51.101Z,959.81
2022-11-29T10:06:51.031Z,959.79
2022-11-29T10:07:50.979Z,959.8
2022-11-29T10:09:52.207Z,959.8
2022-11-29T10:10:50.950Z,959.81
2022-11-29T10:11:51.078Z,959.82
2022-11-29T10:13:51.014Z,959.83
2022-11-29T10:14:51.622Z,959.82
2022-11-29T10:15:50.949Z,959.83
2022-11-29T10:16:51.146Z,959.84
2022-11-29T10:17:51.067Z,959.82
2022-11-29T10:18:51.092Z,959.79
2022-11-29T10:19:51.066Z,959.83
2022-11-29T10:20:51.050Z,959.79
2022-11-29T10:21:51.184Z,959.82
2022-11-29T10:22:51.071Z,959.79
2022-11-29T10:23:52.196Z,959.8
2022-11-29T10:24:51.129Z,959.76
2022-11-29T10:25:51.061Z,959.8
2022-11-29T10:28:51.082Z,959.79
2022-11-29T10:29:51.045Z,959.78
2022-11-29T10:31:51.027Z,959.76
2022-11-29T10:32:51.133Z,959.78
2022-11-29T10:34:51.141Z,959.75
2022-11-29T10:35:52.283Z,959.74
2022-11-29T10:36:51.243Z,959.77
2022-11-29T10:38:08.055Z,959.75
2022-11-29T10:38:52.241Z,959.78
2022-11-29T10:39:51.373Z,959.74
2022-11-29T10:40:51.072Z,959.75
2022-11-29T10:41:51.137Z,959.74
2022-11-29T10:42:51.195Z,959.72
2022-11-29T10:43:51.087Z,959.71
2022-11-29T10:45:51.215Z,959.75
2022-11-29T10:47:51.099Z,959.77
2022-11-29T10:48:51.186Z,959.73
2022-11-29T10:50:51.100Z,959.74
2022-11-29T10:51:51.161Z,959.69
2022-11-29T10:52:53.659Z,959.71
2022-11-29T10:53:51.058Z,959.73
2022-11-29T10:54:51.067Z,959.7
2022-11-29T10:56:51.152Z,959.67
2022-11-29T10:57:51.172Z,959.65
2022-11-29T10:59:51.120Z,959.69
2022-11-29T11:01:51.217Z,959.72
2022-11-29T11:02:51.178Z,959.66
2022-11-29T11:03:52.913Z,959.7
2022-11-29T11:04:51.268Z,959.67
2022-11-29T11:05:51.206Z,959.63
2022-11-29T11:06:51.142Z,959.65
2022-11-29T11:07:51.306Z,959.68
2022-11-29T11:10:53.740Z,959.7
2022-11-29T11:11:51.557Z,959.69
2022-11-29T11:13:51.121Z,959.71
2022-11-29T11:14:51.281Z,959.69
2022-11-29T11:17:51.226Z,959.68
2022-11-29T11:18:51.199Z,959.69
2022-11-29T11:19:51.218Z,959.66
2022-11-29T11:20:51.199Z,959.71
2022-11-29T11:21:51.225Z,959.65
2022-11-29T11:22:51.238Z,959.69
2022-11-29T11:23:51.341Z,959.71
2022-11-29T11:24:51.179Z,959.68
2022-11-29T11:26:51.268Z,959.7
2022-11-29T11:27:51.197Z,959.66
2022-11-29T11:28:51.268Z,959.68
2022-11-29T11:29:51.236Z,959.69
2022-11-29T11:30:51.299Z,959.65
2022-11-29T11:31:51.195Z,959.68
2022-11-29T11:33:51.208Z,959.67
2022-11-29T11:35:51.201Z,959.66
2022-11-29T11:36:51.408Z,959.64
2022-11-29T11:37:51.211Z,959.68
2022-11-29T11:38:51.188Z,959.69
2022-11-29T11:41:51.253Z,959.71
2022-11-29T11:42:51.308Z,959.69
2022-11-29T11:43:51.238Z,959.72
2022-11-29T11:44:51.182Z,959.71
2022-11-29T11:45:51.312Z,959.72
2022-11-29T11:46:51.170Z,959.7
2022-11-29T11:47:51.167Z,959.71
2022-11-29T11:48:51.311Z,959.76
2022-11-29T11:49:51.190Z,959.66
2022-11-29T11:50:51.317Z,959.72
2022-11-29T11:51:52.638Z,959.7
2022-11-29T11:52:51.198Z,959.69
2022-11-29T11:53:51.165Z,959.73
2022-11-29T11:54:51.313Z,959.69
2022-11-29T11:55:51.175Z,959.77
2022-11-29T11:56:51.186Z,959.72
2022-11-29T11:57:51.325Z,959.74
2022-11-29T11:58:51.392Z,959.59
2022-11-29T11:59:52.628Z,959.76
2022-11-29T12:01:03.287Z,959.77
2022-11-29T12:03:51.261Z,959.81
2022-11-29T12:04:51.507Z,959.78
2022-11-29T12:05:51.384Z,959.81
2022-11-29T12:06:51.233Z,959.82
2022-11-29T12:08:51.519Z,959.81
2022-11-29T12:10:51.414Z,959.8
2022-11-29T12:11:51.285Z,959.79
2022-11-29T12:12:51.426Z,959.8
2022-11-29T12:13:51.361Z,959.83
2022-11-29T12:14:51.308Z,959.82
2022-11-29T12:15:51.427Z,959.85
2022-11-29T12:17:51.353Z,959.86
2022-11-29T12:20:51.420Z,959.84
2022-11-29T12:21:51.377Z,959.83
2022-11-29T12:24:51.440Z,959.84
2022-11-29T12:25:51.400Z,959.89
2022-11-29T12:26:58.214Z,959.86
2022-11-29T12:27:51.609Z,959.89
2022-11-29T12:28:51.360Z,959.85
2022-11-29T12:29:51.280Z,959.86
2022-11-29T12:30:51.316Z,959.85
2022-11-29T12:31:51.321Z,959.83
2022-11-29T12:32:51.435Z,959.82
2022-11-29T12:34:51.405Z,959.83
2022-11-29T12:36:51.349Z,959.89
2022-11-29T12:37:51.283Z,959.88
2022-11-29T12:38:51.398Z,959.86
2022-11-29T12:39:51.479Z,959.87
2022-11-29T12:40:51.368Z,959.86
2022-11-29T12:41:54.105Z,959.89
2022-11-29T12:42:51.399Z,959.86
2022-11-29T12:43:51.467Z,959.89
2022-11-29T12:44:51.552Z,959.87
2022-11-29T12:45:51.447Z,959.88
2022-11-29T12:46:57.921Z,959.9
2022-11-29T12:47:52.006Z,959.89
2022-11-29T12:49:51.391Z,959.95
2022-11-29T12:51:51.548Z,959.93
2022-11-29T12:52:51.365Z,959.95
2022-11-29T12:54:51.503Z,959.92
2022-11-29T12:55:51.445Z,959.94
2022-11-29T12:58:27.493Z,959.95
2022-11-29T12:58:51.555Z,959.9
2022-11-29T12:59:51.476Z,959.89
2022-11-29T13:00:51.424Z,959.9
2022-11-29T13:01:51.435Z,959.91
2022-11-29T13:02:51.487Z,959.95
2022-11-29T13:03:51.420Z,959.93
2022-11-29T13:04:55.095Z,959.95
2022-11-29T13:05:51.467Z,959.98
2022-11-29T13:06:51.408Z,959.93
2022-11-29T13:08:51.446Z,959.92
2022-11-29T13:09:51.382Z,959.95
2022-11-29T13:10:51.365Z,959.93
2022-11-29T13:12:51.527Z,959.94
2022-11-29T13:15:51.428Z,959.97
2022-11-29T13:16:51.585Z,959.95
2022-11-29T13:17:51.517Z,959.99
2022-11-29T13:18:51.402Z,959.96
2022-11-29T13:19:51.486Z,959.97
2022-11-29T13:20:51.455Z,959.99
2022-11-29T13:22:51.499Z,959.96
2022-11-29T13:24:07.665Z,959.97
2022-11-29T13:24:51.759Z,960.01
2022-11-29T13:25:51.533Z,959.99
2022-11-29T13:26:51.460Z,960.01
2022-11-29T13:27:51.406Z,959.97
2022-11-29T13:28:51.406Z,959.98
2022-11-29T13:29:51.400Z,959.97
2022-11-29T13:30:51.591Z,959.98
2022-11-29T13:31:51.438Z,959.99
2022-11-29T13:32:51.403Z,959.96
2022-11-29T13:33:51.577Z,959.93
2022-11-29T13:34:51.509Z,959.91
2022-11-29T13:35:51.501Z,959.93
2022-11-29T13:36:51.421Z,959.95
2022-11-29T13:37:55.106Z,959.96
2022-11-29T13:38:51.601Z,959.98
2022-11-29T13:39:51.425Z,959.94
2022-11-29T13:40:51.429Z,959.98
2022-11-29T13:41:51.600Z,959.95
2022-11-29T13:42:51.451Z,959.98
2022-11-29T13:43:51.537Z,959.99
2022-11-29T13:44:52.589Z,960.01
2022-11-29T13:45:51.453Z,959.96
2022-11-29T13:46:51.606Z,959.97
2022-11-29T13:47:51.443Z,960
2022-11-29T13:49:51.539Z,960.01
2022-11-29T13:50:51.451Z,959.98
2022-11-29T13:52:51.542Z,960
2022-11-29T13:53:51.598Z,960.03
2022-11-29T13:54:51.461Z,960.04
2022-11-29T13:55:51.542Z,960.02
2022-11-29T13:56:51.471Z,960.01
2022-11-29T13:58:08.557Z,960.05
2022-11-29T13:58:51.854Z,960.04
2022-11-29T13:59:51.480Z,960.07
2022-11-29T14:00:51.503Z,960.04
2022-11-29T14:04:51.683Z,960.07
2022-11-29T14:05:51.637Z,960.06
2022-11-29T14:06:51.490Z,960.12
2022-11-29T14:07:51.544Z,960.08
2022-11-29T14:09:17.598Z,960.07
2022-11-29T14:09:51.521Z,960.09
2022-11-29T14:10:51.510Z,960.12
2022-11-29T14:11:51.630Z,960.1
2022-11-29T14:13:51.609Z,960.14
2022-11-29T14:14:51.526Z,960.1
2022-11-29T14:18:51.567Z,960.09
2022-11-29T14:19:51.567Z,960.1
2022-11-29T14:20:51.580Z,960.08
2022-11-29T14:21:51.533Z,960.11
2022-11-29T14:22:51.537Z,960.09
2022-11-29T14:24:51.625Z,960.11
2022-11-29T14:25:52.376Z,960.09
2022-11-29T14:26:51.817Z,960.1
2022-11-29T14:27:51.557Z,960.09
2022-11-29T14:28:51.552Z,960.1
2022-11-29T14:29:51.655Z,960.11
2022-11-29T14:30:51.741Z,960.14
2022-11-29T14:31:51.553Z,960.17
2022-11-29T14:32:51.663Z,960.12
2022-11-29T14:33:51.627Z,960.16
2022-11-29T14:34:51.574Z,960.15
2022-11-29T14:35:51.551Z,960.17
2022-11-29T14:36:51.552Z,960.15
2022-11-29T14:38:51.665Z,960.18
2022-11-29T14:39:51.633Z,960.12
2022-11-29T14:40:51.567Z,960.16
2022-11-29T14:42:51.743Z,960.14
2022-11-29T14:43:51.712Z,960.11
2022-11-29T14:44:51.574Z,960.12
2022-11-29T14:46:51.599Z,960.16
2022-11-29T14:47:51.671Z,960.13
2022-11-29T14:49:51.724Z,960.15
2022-11-29T14:50:51.887Z,960.18
2022-11-29T14:51:51.598Z,960.15
2022-11-29T14:52:51.713Z,960.18
2022-11-29T14:54:54.187Z,960.15
2022-11-29T14:55:51.726Z,960.19
2022-11-29T14:56:51.617Z,960.23
2022-11-29T14:57:51.761Z,960.2
2022-11-29T14:58:51.722Z,960.23
2022-11-29T14:59:51.622Z,960.24
2022-11-29T15:02:51.774Z,960.27
2022-11-29T15:03:51.820Z,960.24
2022-11-29T15:04:51.636Z,960.28
2022-11-29T15:05:51.705Z,960.31
2022-11-29T15:07:51.656Z,960.29
2022-11-29T15:08:51.713Z,960.28
2022-11-29T15:09:51.652Z,960.32
2022-11-29T15:11:51.732Z,960.34
2022-11-29T15:12:51.783Z,960.32
2022-11-29T15:13:51.652Z,960.35
2022-11-29T15:14:51.807Z,960.34
2022-11-29T15:15:51.678Z,960.33
2022-11-29T15:16:51.734Z,960.35
2022-11-29T15:17:51.825Z,960.33
2022-11-29T15:18:51.789Z,960.39
2022-11-29T15:19:51.703Z,960.37